Time;durP1;ratioP1;P1;durP2;ratioP2;P2;SDS_P1;SDS_P2;PMS_P1;PMS_P2;Temp;Humidity;BMP_temperature;BMP_pressure;BME280_temperature;BME280_humidity;BME280_pressure;Samples;Min_cycle;Max_cycle;Signal;HPM_P1;HPM_P2
2023/03/09 00:01:27;;;;;;;;;;;;;;;7.47;60.55;97900.16;4993099;28;7395;-79
2023/03/09 00:03:53;;;;;;;;;;;;;;;7.47;60.37;97902.72;4998355;28;7323;-80
2023/03/09 00:06:21;;;;;;;;;;;;;;;7.48;60.90;97909.53;5000014;28;7254;-79
2023/03/09 00:08:47;;;;;;;;;;;;;;;7.47;60.43;97901.00;4971012;28;8729;-79
2023/03/09 00:11:14;;;;;;;;;;;;;;;7.48;61.13;97904.44;4983191;28;7190;-79
2023/03/09 00:13:40;;;;;;;;;;;;;;;7.46;60.96;97904.41;4972492;28;8391;-81
2023/03/09 00:16:22;;;;;;;;;;;;;;;7.46;60.20;97906.09;4972936;28;8796;-80
2023/03/09 00:18:50;;;;;;;;;;;;;;;7.44;60.23;97903.50;4972317;28;8456;-79
2023/03/09 00:21:34;;;;;;;;;;;;;;;7.44;60.46;97908.59;4989568;28;8773;-79
2023/03/09 00:24:14;;;;;;;;;;;;;;;7.43;60.54;97899.25;4983217;28;7326;-80
2023/03/09 00:26:43;;;;;;;;;;;;;;;7.44;61.46;97897.56;4984612;28;8494;-81
2023/03/09 00:29:12;;;;;;;;;;;;;;;7.46;60.65;97894.19;5005608;28;7035;-80
2023/03/09 00:31:39;;;;;;;;;;;;;;;7.50;60.55;97898.56;4976364;28;7305;-80
2023/03/09 00:34:06;;;;;;;;;;;;;;;7.58;60.60;97914.00;4970681;28;8527;-81
2023/03/09 00:36:32;;;;;;;;;;;;;;;7.62;60.44;97905.56;4970742;28;9628;-79
2023/03/09 00:38:59;;;;;;;;;;;;;;;7.66;61.02;97918.38;4970991;28;6944;-79
2023/03/09 00:41:30;;;;;;;;;;;;;;;7.65;59.85;97930.25;4969579;28;6990;-82
2023/03/09 00:44:00;;;;;;;;;;;;;;;7.64;60.56;97942.16;4985586;28;7133;-79
2023/03/09 00:46:28;;;;;;;;;;;;;;;7.64;61.03;97947.25;4952709;28;8736;-80
2023/03/09 00:48:53;;;;;;;;;;;;;;;7.63;60.53;97944.66;4993349;28;8535;-81
2023/03/09 00:51:19;;;;;;;;;;;;;;;7.58;60.21;97942.03;4967053;28;7182;-81
2023/03/09 00:53:46;;;;;;;;;;;;;;;7.56;60.24;97946.25;4976994;28;8750;-79
2023/03/09 00:56:19;;;;;;;;;;;;;;;7.53;61.09;97943.59;4984169;28;6954;-80
2023/03/09 00:58:46;;;;;;;;;;;;;;;7.53;60.65;97948.72;4972051;28;8419;-79
2023/03/09 01:01:15;;;;;;;;;;;;;;;7.53;60.80;97953.81;4974192;28;8386;-81
2023/03/09 01:03:41;;;;;;;;;;;;;;;7.54;60.42;97958.09;4984380;28;7378;-79
2023/03/09 01:06:08;;;;;;;;;;;;;;;7.56;60.31;97955.56;4967371;28;8441;-80
2023/03/09 01:08:35;;;;;;;;;;;;;;;7.54;60.68;97949.59;4965182;28;7241;-79
2023/03/09 01:11:06;;;;;;;;;;;;;;;7.56;61.37;97953.00;4983694;28;6960;-79
2023/03/09 01:13:32;;;;;;;;;;;;;;;7.56;60.24;97959.00;4965923;28;8432;-80
2023/03/09 01:15:57;;;;;;;;;;;;;;;7.57;60.24;97952.19;4953450;28;8421;-81
2023/03/09 01:18:23;;;;;;;;;;;;;;;7.59;60.68;97928.44;4982628;28;7162;-80
2023/03/09 01:20:49;;;;;;;;;;;;;;;7.62;60.23;97941.25;4981974;28;6940;-79
2023/03/09 01:23:15;;;;;;;;;;;;;;;7.67;60.66;97960.91;4981513;28;8530;-80
2023/03/09 01:25:40;;;;;;;;;;;;;;;7.70;60.53;97960.94;4983780;28;9135;-79
2023/03/09 01:28:12;;;;;;;;;;;;;;;7.73;60.26;97958.47;4985922;28;7226;-80
2023/03/09 01:30:38;;;;;;;;;;;;;;;7.77;60.36;97962.81;4966404;28;8041;-79
2023/03/09 01:33:04;;;;;;;;;;;;;;;7.80;60.80;97969.66;4971357;28;7161;-79
2023/03/09 01:35:30;;;;;;;;;;;;;;;7.83;60.81;97980.78;4996378;28;8908;-79
2023/03/09 01:37:57;;;;;;;;;;;;;;;7.85;60.96;97986.78;4973133;28;7149;-79
2023/03/09 01:40:26;;;;;;;;;;;;;;;7.88;60.59;97999.56;4965917;28;7056;-81
2023/03/09 01:43:21;;;;;;;;;;;;;;;7.89;60.16;98008.94;4973968;28;8163;-80
2023/03/09 01:45:47;;;;;;;;;;;;;;;7.90;59.88;98031.06;4968912;28;8749;-79
2023/03/09 01:48:12;;;;;;;;;;;;;;;7.90;59.63;98045.53;4993222;28;7148;-80
2023/03/09 01:50:40;;;;;;;;;;;;;;;7.88;60.18;98065.03;4986561;28;6957;-80
2023/03/09 01:53:14;;;;;;;;;;;;;;;7.83;59.93;98079.38;4971546;28;8381;-79
2023/03/09 01:55:48;;;;;;;;;;;;;;;7.75;60.46;98082.59;4975662;28;7199;-79
2023/03/09 01:58:25;;;;;;;;;;;;;;;7.67;60.41;98088.38;4968998;28;8477;-79
2023/03/09 02:00:55;;;;;;;;;;;;;;;7.59;60.27;98090.75;4976832;28;8454;-81
2023/03/09 02:03:32;;;;;;;;;;;;;;;7.50;60.31;98076.09;4976094;28;7333;-80
2023/03/09 02:06:21;;;;;;;;;;;;;;;7.45;59.83;98085.34;4975881;28;7268;-81
2023/03/09 02:09:10;;;;;;;;;;;;;;;7.40;60.46;98092.00;4975835;28;8399;-80
2023/03/09 02:11:36;;;;;;;;;;;;;;;7.35;60.27;98095.31;4961706;28;8463;-80
2023/03/09 02:14:02;;;;;;;;;;;;;;;7.33;61.11;98098.66;4975605;28;8791;-79
2023/03/09 02:16:29;;;;;;;;;;;;;;;7.32;60.46;98097.78;4978124;28;7274;-80
2023/03/09 02:18:55;;;;;;;;;;;;;;;7.32;60.24;98107.97;4961403;28;8386;-79
2023/03/09 02:21:44;;;;;;;;;;;;;;;7.33;60.79;98111.41;4976684;28;8235;-79
2023/03/09 02:24:25;;;;;;;;;;;;;;;7.29;60.97;98123.19;4989706;28;7401;-79
2023/03/09 02:27:00;;;;;;;;;;;;;;;7.28;60.77;98123.16;4975470;28;8425;-79
2023/03/09 02:29:28;;;;;;;;;;;;;;;7.27;60.85;98124.84;4976871;28;6984;-79
2023/03/09 02:31:54;;;;;;;;;;;;;;;7.26;60.89;98123.13;4968837;28;7297;-81
2023/03/09 02:34:20;;;;;;;;;;;;;;;7.27;60.99;98129.94;4978338;28;6800;-79
2023/03/09 02:36:45;;;;;;;;;;;;;;;7.28;60.24;98133.34;4963405;28;8436;-79
2023/03/09 02:39:28;;;;;;;;;;;;;;;7.29;60.17;98133.38;4978132;28;9963;-79
2023/03/09 02:41:58;;;;;;;;;;;;;;;7.27;60.52;98142.69;4976872;28;7227;-79
2023/03/09 02:44:26;;;;;;;;;;;;;;;7.26;60.62;98147.72;4980153;28;6978;-79
2023/03/09 02:46:51;;;;;;;;;;;;;;;7.27;60.39;98145.22;4962794;28;8521;-81
2023/03/09 02:49:17;;;;;;;;;;;;;;;7.30;61.14;98155.50;4961358;28;7068;-80
2023/03/09 02:51:43;;;;;;;;;;;;;;;7.30;61.06;98160.59;4960071;28;8409;-80
2023/03/09 02:54:09;;;;;;;;;;;;;;;7.30;60.52;98163.13;4963900;28;7428;-79
2023/03/09 02:56:34;;;;;;;;;;;;;;;7.29;60.62;98168.19;4966179;28;8419;-79
2023/03/09 02:59:03;;;;;;;;;;;;;;;7.28;60.40;98166.47;4979351;28;8392;-80
2023/03/09 03:01:29;;;;;;;;;;;;;;;7.26;60.44;98174.09;4978389;28;6831;-79
2023/03/09 03:03:55;;;;;;;;;;;;;;;7.22;61.07;98165.50;4971189;28;8404;-80
2023/03/09 03:06:21;;;;;;;;;;;;;;;7.23;60.90;98154.47;4967769;28;6956;-81
2023/03/09 03:08:46;;;;;;;;;;;;;;;7.25;60.54;98168.94;4973891;28;8364;-79
2023/03/09 03:11:12;;;;;;;;;;;;;;;7.26;60.44;98166.44;4958382;28;6988;-79
2023/03/09 03:13:38;;;;;;;;;;;;;;;7.27;60.95;98165.63;4962960;28;7504;-80
2023/03/09 03:16:04;;;;;;;;;;;;;;;7.29;60.41;98163.09;4983672;28;7335;-79
2023/03/09 03:18:30;;;;;;;;;;;;;;;7.29;60.74;98163.97;4972605;28;8648;-82
2023/03/09 03:20:56;;;;;;;;;;;;;;;7.30;60.76;98160.59;4971660;28;8467;-81
2023/03/09 03:23:22;;;;;;;;;;;;;;;7.30;60.93;98169.94;4988191;28;7193;-81
2023/03/09 03:25:48;;;;;;;;;;;;;;;7.32;60.76;98171.69;4987817;28;7001;-80
2023/03/09 03:28:14;;;;;;;;;;;;;;;7.32;61.01;98181.03;4982442;28;7177;-84
2023/03/09 03:30:40;;;;;;;;;;;;;;;7.30;60.49;98192.88;4960994;28;8413;-84
2023/03/09 03:33:06;;;;;;;;;;;;;;;7.29;60.38;98194.53;5000397;28;7168;-85
2023/03/09 03:35:31;;;;;;;;;;;;;;;7.31;60.67;98192.03;4986748;28;7851;-84
2023/03/09 03:37:57;;;;;;;;;;;;;;;7.32;60.78;98189.50;4967979;28;8432;-84
2023/03/09 03:40:23;;;;;;;;;;;;;;;7.34;60.99;98194.66;5000543;28;6768;-83
2023/03/09 03:42:48;;;;;;;;;;;;;;;7.36;60.81;98198.09;4979753;28;8386;-83
2023/03/09 03:45:14;;;;;;;;;;;;;;;7.38;60.54;98208.34;4981087;28;8372;-85
2023/03/09 03:47:40;;;;;;;;;;;;;;;7.39;61.18;98228.78;4985973;28;9548;-84
2023/03/09 03:50:07;;;;;;;;;;;;;;;7.40;60.35;98212.66;4966522;28;8565;-84
2023/03/09 03:52:32;;;;;;;;;;;;;;;7.42;61.15;98207.59;4969308;28;8737;-84
2023/03/09 03:54:58;;;;;;;;;;;;;;;7.44;60.42;98213.63;4983056;28;8750;-85
2023/03/09 03:57:23;;;;;;;;;;;;;;;7.44;60.43;98228.91;5002462;28;6927;-84
2023/03/09 03:59:49;;;;;;;;;;;;;;;7.44;60.89;98234.00;4986207;28;7257;-83
2023/03/09 04:02:16;;;;;;;;;;;;;;;7.42;61.01;98230.53;4982236;28;8963;-83
2023/03/09 04:04:41;;;;;;;;;;;;;;;7.42;60.43;98227.97;4981465;28;8679;-82
2023/03/09 04:07:07;;;;;;;;;;;;;;;7.42;60.39;98226.31;4996318;28;6978;-84
2023/03/09 04:09:33;;;;;;;;;;;;;;;7.46;61.06;98237.44;4961893;28;8387;-84
2023/03/09 04:11:59;;;;;;;;;;;;;;;7.45;60.59;98231.47;4955971;28;8775;-84
2023/03/09 04:14:25;;;;;;;;;;;;;;;7.48;60.75;98231.56;4967553;28;8556;-81
2023/03/09 04:16:50;;;;;;;;;;;;;;;7.46;60.81;98233.19;4960278;28;8479;-82
2023/03/09 04:19:16;;;;;;;;;;;;;;;7.45;60.87;98234.03;4966262;28;8400;-83
2023/03/09 04:21:42;;;;;;;;;;;;;;;7.43;60.46;98237.34;4955570;28;7849;-84
2023/03/09 04:24:07;;;;;;;;;;;;;;;7.42;60.99;98235.63;4980180;28;8440;-83
2023/03/09 04:26:33;;;;;;;;;;;;;;;7.44;60.37;98237.41;4977938;28;8614;-81
2023/03/09 04:28:59;;;;;;;;;;;;;;;7.45;60.39;98251.88;4974557;28;7627;-83
2023/03/09 04:31:25;;;;;;;;;;;;;;;7.43;60.97;98262.84;4997064;28;7300;-85
2023/03/09 04:33:50;;;;;;;;;;;;;;;7.42;60.57;98261.13;4995600;28;7284;-84
2023/03/09 04:36:16;;;;;;;;;;;;;;;7.41;60.69;98267.03;5002380;28;6864;-83
2023/03/09 04:38:42;;;;;;;;;;;;;;;7.41;60.95;98261.94;5019555;28;8897;-86
2023/03/09 04:41:11;;;;;;;;;;;;;;;7.40;60.55;98265.31;4998026;28;7022;-84
2023/03/09 04:43:37;;;;;;;;;;;;;;;7.36;60.45;98272.88;5000687;28;6876;-84
2023/03/09 04:46:03;;;;;;;;;;;;;;;7.35;60.53;98265.19;4998940;28;7137;-83
2023/03/09 04:48:29;;;;;;;;;;;;;;;7.31;60.61;98268.50;4998950;28;8439;-82
2023/03/09 04:50:54;;;;;;;;;;;;;;;7.29;60.30;98268.44;4995767;28;7236;-82
2023/03/09 04:53:20;;;;;;;;;;;;;;;7.27;59.71;98279.41;5003408;28;6800;-84
2023/03/09 04:55:46;;;;;;;;;;;;;;;7.27;60.52;98290.47;5004679;28;7244;-86
2023/03/09 04:58:12;;;;;;;;;;;;;;;7.28;60.40;98298.97;4989213;28;8518;-84
2023/03/09 05:00:37;;;;;;;;;;;;;;;7.25;59.87;98298.91;4997084;28;7170;-83
2023/03/09 05:03:03;;;;;;;;;;;;;;;7.23;59.93;98309.03;4984765;28;6947;-85
2023/03/09 05:05:29;;;;;;;;;;;;;;;7.21;61.01;98308.13;4969222;28;8547;-83
2023/03/09 05:07:54;;;;;;;;;;;;;;;7.18;60.14;98298.72;4988645;28;6760;-84
2023/03/09 05:10:20;;;;;;;;;;;;;;;7.18;60.91;98308.91;4964764;28;8462;-83
2023/03/09 05:12:46;;;;;;;;;;;;;;;7.15;61.10;98313.09;4959265;28;8584;-83
2023/03/09 05:15:12;;;;;;;;;;;;;;;7.12;60.81;98302.78;4984314;28;6947;-83
2023/03/09 05:17:38;;;;;;;;;;;;;;;7.11;60.33;98298.50;4988199;28;8839;-84
2023/03/09 05:20:11;;;;;;;;;;;;;;;7.06;60.42;98299.25;4964737;28;8969;-86
2023/03/09 05:22:39;;;;;;;;;;;;;;;7.04;61.01;98307.66;4985367;28;7240;-85
2023/03/09 05:25:06;;;;;;;;;;;;;;;7.04;60.94;98308.50;4985675;28;6804;-86
2023/03/09 05:27:32;;;;;;;;;;;;;;;7.04;60.19;98308.50;4980628;28;6964;-85
2023/03/09 05:29:57;;;;;;;;;;;;;;;7.05;60.96;98323.00;4977519;28;7723;-85
2023/03/09 05:32:23;;;;;;;;;;;;;;;7.04;60.12;98313.59;4986591;28;6775;-85
2023/03/09 05:34:49;;;;;;;;;;;;;;;7.04;60.94;98318.72;5003012;28;8439;-85
2023/03/09 05:37:14;;;;;;;;;;;;;;;7.03;60.68;98333.97;4987066;28;7255;-85
2023/03/09 05:39:40;;;;;;;;;;;;;;;7.04;60.79;98336.53;4969563;28;8389;-84
2023/03/09 05:42:06;;;;;;;;;;;;;;;7.05;60.96;98330.66;4984073;28;6772;-85
2023/03/09 05:44:32;;;;;;;;;;;;;;;7.03;60.87;98339.06;4982242;28;8662;-86
2023/03/09 05:46:58;;;;;;;;;;;;;;;6.98;60.75;98344.03;4981594;28;6931;-83
2023/03/09 05:49:28;;;;;;;;;;;;;;;6.97;60.57;98349.06;4986470;28;7174;-86
2023/03/09 05:51:58;;;;;;;;;;;;;;;6.95;60.84;98357.53;4986188;28;7230;-83
2023/03/09 05:54:24;;;;;;;;;;;;;;;6.94;60.64;98354.91;4984358;28;8667;-84
2023/03/09 05:56:54;;;;;;;;;;;;;;;6.95;60.27;98356.66;4980407;28;6941;-84
2023/03/09 05:59:20;;;;;;;;;;;;;;;6.95;60.38;98366.84;4981456;28;6992;-85
2023/03/09 06:01:46;;;;;;;;;;;;;;;6.99;60.68;98373.75;4968748;28;8382;-82
2023/03/09 06:04:11;;;;;;;;;;;;;;;6.99;61.06;98378.84;4986532;28;6913;-85
2023/03/09 06:06:37;;;;;;;;;;;;;;;7.00;61.03;98382.25;4983143;28;6997;-81
2023/03/09 06:09:02;;;;;;;;;;;;;;;7.00;60.83;98378.03;4982360;28;6837;-86
2023/03/09 06:11:28;;;;;;;;;;;;;;;7.01;60.26;98382.31;4981697;28;8420;-82
2023/03/09 06:13:55;;;;;;;;;;;;;;;7.03;60.58;98379.81;4977684;28;8454;-81
2023/03/09 06:16:21;;;;;;;;;;;;;;;7.03;60.82;98388.31;4980704;28;7213;-85
2023/03/09 06:18:55;;;;;;;;;;;;;;;7.03;60.68;98388.31;4971350;28;8378;-83
2023/03/09 06:21:21;;;;;;;;;;;;;;;7.02;60.50;98386.56;4982981;28;6880;-84
2023/03/09 06:23:46;;;;;;;;;;;;;;;7.01;60.53;98397.59;4981724;28;7450;-85
2023/03/09 06:26:13;;;;;;;;;;;;;;;7.02;61.02;98398.47;4986349;28;6799;-84
2023/03/09 06:28:39;;;;;;;;;;;;;;;7.03;60.32;98410.38;4970019;28;8616;-85
2023/03/09 06:31:11;;;;;;;;;;;;;;;7.05;61.14;98414.72;4985193;28;6796;-85
2023/03/09 06:33:38;;;;;;;;;;;;;;;7.07;60.35;98423.25;5005643;28;6961;-86
2023/03/09 06:36:05;;;;;;;;;;;;;;;7.09;60.64;98426.72;5004550;28;6969;-84
2023/03/09 06:38:31;;;;;;;;;;;;;;;7.11;60.41;98446.28;5008689;28;7471;-90
2023/03/09 06:40:57;;;;;;;;;;;;;;;7.12;60.59;98440.34;4989966;28;8410;-86
2023/03/09 06:43:23;;;;;;;;;;;;;;;7.13;60.95;98442.09;5000192;28;8470;-85
2023/03/09 06:45:49;;;;;;;;;;;;;;;7.13;60.95;98449.72;5004289;28;8648;-85
2023/03/09 06:48:15;;;;;;;;;;;;;;;7.14;60.86;98441.25;4998958;28;6788;-86
2023/03/09 06:50:40;;;;;;;;;;;;;;;7.14;60.53;98448.91;4981882;28;8589;-81
2023/03/09 06:53:06;;;;;;;;;;;;;;;7.12;60.70;98455.63;4982731;28;8593;-86
2023/03/09 06:55:32;;;;;;;;;;;;;;;7.11;60.92;98466.66;5005739;28;6788;-86
2023/03/09 06:57:57;;;;;;;;;;;;;;;7.08;60.46;98468.28;4985028;28;7366;-83
2023/03/09 07:00:23;;;;;;;;;;;;;;;7.08;61.00;98462.31;4998404;28;7231;-86
2023/03/09 07:02:49;;;;;;;;;;;;;;;7.14;60.96;98475.25;5001374;28;6832;-86
2023/03/09 07:05:15;;;;;;;;;;;;;;;7.20;61.42;98477.13;4979324;28;8056;-85
2023/03/09 07:07:43;;;;;;;;;;;;;;;7.25;61.01;98475.59;4983722;28;7162;-85
2023/03/09 07:10:13;;;;;;;;;;;;;;;7.29;60.53;98487.59;4984904;28;7258;-82
2023/03/09 07:12:38;;;;;;;;;;;;;;;7.31;61.37;98488.50;4984434;28;8581;-84
2023/03/09 07:15:06;;;;;;;;;;;;;;;7.36;61.62;98492.06;4980285;28;7120;-84
2023/03/09 07:17:31;;;;;;;;;;;;;;;7.45;61.08;98495.72;4985316;28;8329;-87
2023/03/09 07:19:57;;;;;;;;;;;;;;;7.54;61.57;98493.44;4982847;28;7169;-84
2023/03/09 07:22:23;;;;;;;;;;;;;;;7.62;61.44;98507.25;4985779;28;8448;-87
2023/03/09 07:24:49;;;;;;;;;;;;;;;7.70;61.03;98504.06;4977060;28;7461;-86
2023/03/09 07:27:18;;;;;;;;;;;;;;;7.77;61.12;98506.00;4986772;28;6919;-85
2023/03/09 07:29:45;;;;;;;;;;;;;;;7.82;61.32;98501.88;4982100;28;6800;-87
2023/03/09 07:32:11;;;;;;;;;;;;;;;7.92;61.41;98511.53;4980997;28;6799;-85
2023/03/09 07:34:37;;;;;;;;;;;;;;;8.04;61.00;98513.53;4981852;28;8478;-86
2023/03/09 07:37:04;;;;;;;;;;;;;;;8.13;61.48;98522.28;4997023;28;8527;-83
2023/03/09 07:39:30;;;;;;;;;;;;;;;8.24;60.98;98526.00;4982233;28;7031;-86
2023/03/09 07:41:56;;;;;;;;;;;;;;;8.31;61.43;98524.50;4977351;28;6793;-86
2023/03/09 07:44:21;;;;;;;;;;;;;;;8.34;60.34;98522.00;4998966;28;6792;-86
2023/03/09 07:46:47;;;;;;;;;;;;;;;8.37;60.90;98526.34;4977618;28;8380;-84
2023/03/09 07:49:13;;;;;;;;;;;;;;;8.37;60.44;98531.44;5001875;28;7844;-86
2023/03/09 07:51:39;;;;;;;;;;;;;;;8.38;60.12;98541.69;5002437;28;6780;-86
2023/03/09 07:54:06;;;;;;;;;;;;;;;8.36;60.16;98550.16;4980338;28;8416;-86
2023/03/09 07:56:32;;;;;;;;;;;;;;;8.34;60.69;98560.31;4985729;28;6800;-83
2023/03/09 07:58:57;;;;;;;;;;;;;;;8.32;59.95;98567.06;5003129;28;7156;-83
2023/03/09 08:01:23;;;;;;;;;;;;;;;8.32;60.39;98574.72;4971351;28;8567;-87
2023/03/09 08:03:49;;;;;;;;;;;;;;;8.36;60.63;98570.56;4990418;28;6787;-85
2023/03/09 08:06:16;;;;;;;;;;;;;;;8.40;60.68;98577.47;4987850;28;7122;-86
2023/03/09 08:08:42;;;;;;;;;;;;;;;8.45;61.00;98576.78;4964923;28;8457;-86
2023/03/09 08:11:08;;;;;;;;;;;;;;;8.50;60.63;98573.47;4984558;28;7340;-86
2023/03/09 08:13:34;;;;;;;;;;;;;;;8.54;61.32;98586.38;4979900;28;6935;-83
2023/03/09 08:16:05;;;;;;;;;;;;;;;8.60;60.82;98598.50;4961883;28;8756;-83
2023/03/09 08:18:31;;;;;;;;;;;;;;;8.64;60.98;98594.28;4982069;28;7175;-85
2023/03/09 08:21:14;;;;;;;;;;;;;;;8.69;60.64;98593.63;4983936;28;7165;-84
2023/03/09 08:23:41;;;;;;;;;;;;;;;8.75;61.23;98586.09;4982836;28;7151;-84
2023/03/09 08:26:16;;;;;;;;;;;;;;;8.86;61.32;98596.63;4987232;28;7074;-84
2023/03/09 08:28:43;;;;;;;;;;;;;;;8.96;60.47;98601.97;4986523;28;7243;-84
2023/03/09 08:31:10;;;;;;;;;;;;;;;9.03;60.67;98597.03;4976979;28;8653;-83
2023/03/09 08:33:37;;;;;;;;;;;;;;;9.11;59.98;98604.03;4989812;28;9711;-86
2023/03/09 08:36:16;;;;;;;;;;;;;;;9.19;60.93;98607.66;5007620;28;8577;-84
2023/03/09 08:38:43;;;;;;;;;;;;;;;9.22;60.92;98602.59;5008358;28;8579;-85
2023/03/09 08:41:09;;;;;;;;;;;;;;;9.28;60.31;98610.44;4992700;28;8531;-85
2023/03/09 08:43:35;;;;;;;;;;;;;;;9.38;60.11;98620.88;5007484;28;7167;-83
2023/03/09 08:46:01;;;;;;;;;;;;;;;9.39;60.46;98632.84;5000000;28;8466;-85
2023/03/09 08:48:26;;;;;;;;;;;;;;;9.40;60.17;98639.69;5008478;28;7097;-85
2023/03/09 08:50:52;;;;;;;;;;;;;;;9.42;60.69;98650.81;5008791;28;6771;-85
2023/03/09 08:53:20;;;;;;;;;;;;;;;9.47;60.45;98656.91;5009770;28;8495;-85
2023/03/09 08:55:46;;;;;;;;;;;;;;;9.55;60.01;98660.50;5008738;28;6803;-86
2023/03/09 08:58:11;;;;;;;;;;;;;;;9.65;60.21;98660.72;4994009;28;8384;-84
2023/03/09 09:00:37;;;;;;;;;;;;;;;9.72;60.28;98660.03;5008782;28;6776;-83
2023/03/09 09:03:04;;;;;;;;;;;;;;;9.76;60.52;98664.41;4988400;28;8471;-85
2023/03/09 09:05:30;;;;;;;;;;;;;;;9.77;59.92;98658.47;5008508;28;8488;-84
2023/03/09 09:07:56;;;;;;;;;;;;;;;9.78;60.13;98665.31;5007889;28;6938;-82
2023/03/09 09:10:22;;;;;;;;;;;;;;;9.81;60.41;98661.97;4989923;28;8295;-85
2023/03/09 09:12:47;;;;;;;;;;;;;;;9.89;59.90;98669.81;4983667;28;8517;-85
2023/03/09 09:15:15;;;;;;;;;;;;;;;10.02;60.70;98668.41;5006039;28;8825;-86
2023/03/09 09:17:42;;;;;;;;;;;;;;;10.16;60.65;98671.25;5009152;28;7243;-84
2023/03/09 09:20:09;;;;;;;;;;;;;;;10.30;60.37;98669.00;5007784;28;6792;-85
2023/03/09 09:22:36;;;;;;;;;;;;;;;10.39;60.27;98669.19;5006394;28;7223;-82
2023/03/09 09:25:04;;;;;;;;;;;;;;;10.48;60.18;98673.66;4992054;28;8635;-84
2023/03/09 09:27:29;;;;;;;;;;;;;;;10.58;60.49;98673.00;5005385;28;6828;-82
2023/03/09 09:29:56;;;;;;;;;;;;;;;10.73;60.21;98672.44;5004908;28;7093;-86
2023/03/09 09:32:22;;;;;;;;;;;;;;;10.86;60.02;98675.25;5002053;28;8450;-85
2023/03/09 09:34:48;;;;;;;;;;;;;;;11.01;60.29;98684.91;4999606;28;7598;-84
2023/03/09 09:37:16;;;;;;;;;;;;;;;11.08;59.67;98686.78;5005100;28;7051;-85
2023/03/09 09:39:42;;;;;;;;;;;;;;;11.11;59.43;98691.97;5004556;28;8519;-86
2023/03/09 09:42:54;;;;;;;;;;;;;;;11.17;59.51;98692.06;5005858;28;8472;-86
2023/03/09 09:45:35;;;;;;;;;;;;;;;11.23;59.87;98696.44;4983789;28;8612;-85
2023/03/09 09:48:05;;;;;;;;;;;;;;;11.27;59.91;98693.13;4989199;28;8666;-85
2023/03/09 09:50:54;;;;;;;;;;;;;;;11.33;59.13;98702.63;5004767;28;7023;-85
2023/03/09 09:53:59;;;;;;;;;;;;;;;11.38;58.90;98708.66;4999339;28;8690;-86
2023/03/09 09:56:36;;;;;;;;;;;;;;;11.37;59.09;98722.34;5004097;28;6972;-82
2023/03/09 09:59:12;;;;;;;;;;;;;;;11.36;59.01;98718.94;5004164;28;7028;-83
2023/03/09 10:01:55;;;;;;;;;;;;;;;11.32;58.55;98723.97;4997508;28;7192;-82
2023/03/09 10:04:53;;;;;;;;;;;;;;;11.27;58.41;98723.00;4981543;28;6808;-85
2023/03/09 10:07:23;;;;;;;;;;;;;;;11.19;58.59;98712.63;4985988;28;7322;-85
2023/03/09 10:10:02;;;;;;;;;;;;;;;11.11;58.41;98712.50;4967993;28;8415;-82
2023/03/09 10:12:29;;;;;;;;;;;;;;;11.04;58.89;98714.03;4968551;28;8532;-85
2023/03/09 10:15:13;;;;;;;;;;;;;;;11.02;58.87;98708.03;4976979;28;8507;-83
2023/03/09 10:18:18;;;;;;;;;;;;;;;11.01;59.06;98720.81;4988910;28;6824;-87
2023/03/09 10:20:50;;;;;;;;;;;;;;;11.02;59.18;98712.31;4986333;28;6993;-85
2023/03/09 10:23:29;;;;;;;;;;;;;;;11.09;59.55;98715.00;4968643;28;8443;-83
2023/03/09 10:26:25;;;;;;;;;;;;;;;11.17;59.46;98702.31;5002193;28;7183;-87
2023/03/09 10:29:00;;;;;;;;;;;;;;;11.25;59.38;98711.03;5000104;28;6864;-86
2023/03/09 10:32:05;;;;;;;;;;;;;;;11.36;59.01;98718.94;4975049;28;8791;-87
2023/03/09 10:34:58;;;;;;;;;;;;;;;11.43;58.89;98714.75;4980954;28;7035;-86
2023/03/09 10:37:34;;;;;;;;;;;;;;;11.45;58.91;98719.94;5000036;28;7196;-86
2023/03/09 10:40:07;;;;;;;;;;;;;;;11.53;59.41;98711.50;4999965;28;11251;-86
2023/03/09 10:42:37;;;;;;;;;;;;;;;11.65;59.01;98707.41;4984414;28;8669;-86
2023/03/09 10:45:12;;;;;;;;;;;;;;;11.73;59.32;98717.81;5002496;28;6963;-84
2023/03/09 10:47:47;;;;;;;;;;;;;;;11.78;59.35;98719.63;5002132;28;8637;-85
2023/03/09 10:50:15;;;;;;;;;;;;;;;11.85;58.88;98719.72;5002138;28;6939;-86
2023/03/09 10:52:41;;;;;;;;;;;;;;;11.92;59.20;98718.97;5003264;28;7151;-85
2023/03/09 10:55:25;;;;;;;;;;;;;;;11.99;58.92;98720.81;5002828;28;6918;-86
2023/03/09 10:58:21;;;;;;;;;;;;;;;12.08;59.20;98720.97;5003461;28;7212;-86
2023/03/09 11:00:59;;;;;;;;;;;;;;;12.17;58.73;98719.38;4981057;28;8561;-86
2023/03/09 11:03:35;;;;;;;;;;;;;;;12.21;59.35;98711.72;5018851;28;8445;-86
2023/03/09 11:06:34;;;;;;;;;;;;;;;12.32;58.98;98727.28;4980802;28;8646;-85
2023/03/09 11:09:14;;;;;;;;;;;;;;;12.40;59.52;98722.25;4997283;28;7207;-82
2023/03/09 11:11:42;;;;;;;;;;;;;;;12.50;59.20;98720.69;4995807;28;6807;-86
2023/03/09 11:14:29;;;;;;;;;;;;;;;12.68;59.79;98732.91;4993867;28;8648;-82
2023/03/09 11:17:00;;;;;;;;;;;;;;;12.85;59.49;98730.56;4985544;28;8579;-84
2023/03/09 11:19:28;;;;;;;;;;;;;;;12.99;58.63;98730.72;5002505;28;6957;-85
2023/03/09 11:21:56;;;;;;;;;;;;;;;13.09;59.53;98730.81;5002799;28;6860;-82
2023/03/09 11:24:37;;;;;;;;;;;;;;;13.15;59.07;98729.19;5006486;28;7223;-85
2023/03/09 11:27:26;;;;;;;;;;;;;;;13.24;58.71;98732.69;5009003;28;7012;-85
2023/03/09 11:30:13;;;;;;;;;;;;;;;13.27;58.50;98730.16;4992260;28;8504;-87
2023/03/09 11:32:39;;;;;;;;;;;;;;;13.26;57.90;98729.25;4990552;28;13334;-87
2023/03/09 11:35:11;;;;;;;;;;;;;;;13.24;58.25;98728.41;5007003;28;6884;-84
2023/03/09 11:37:49;;;;;;;;;;;;;;;13.11;57.47;98717.09;5008867;28;6823;-85
2023/03/09 11:40:22;;;;;;;;;;;;;;;12.92;56.93;98724.63;4986954;28;8455;-87
2023/03/09 11:43:06;;;;;;;;;;;;;;;12.70;57.01;98728.66;5007952;28;8695;-86
2023/03/09 11:45:35;;;;;;;;;;;;;;;12.44;56.71;98728.31;5001814;28;8786;-87
2023/03/09 11:48:37;;;;;;;;;;;;;;;12.21;56.73;98727.13;5008349;28;8396;-86
2023/03/09 11:51:35;;;;;;;;;;;;;;;11.95;56.99;98716.44;5007167;28;8771;-87
2023/03/09 11:54:26;;;;;;;;;;;;;;;11.79;57.52;98720.47;5003460;28;7249;-87
2023/03/09 11:56:54;;;;;;;;;;;;;;;11.64;57.55;98724.53;5003187;28;6980;-84
2023/03/09 11:59:44;;;;;;;;;;;;;;;11.53;57.04;98720.91;5002187;28;6808;-87
2023/03/09 12:02:19;;;;;;;;;;;;;;;11.42;57.66;98727.56;5010241;28;7211;-85
2023/03/09 12:04:49;;;;;;;;;;;;;;;11.31;57.98;98719.69;5005662;28;8137;-85
2023/03/09 12:07:27;;;;;;;;;;;;;;;11.23;58.08;98717.84;5001402;28;8423;-81
2023/03/09 12:10:25;;;;;;;;;;;;;;;11.14;58.30;98717.66;4992965;28;8543;-84
2023/03/09 12:13:14;;;;;;;;;;;;;;;11.10;58.32;98708.16;4983133;28;8947;-84
2023/03/09 12:16:14;;;;;;;;;;;;;;;11.09;58.86;98714.13;5006638;28;8654;-85
2023/03/09 12:19:01;;;;;;;;;;;;;;;11.08;58.86;98713.28;5009291;28;7004;-85
2023/03/09 12:21:35;;;;;;;;;;;;;;;11.10;58.88;98711.59;5010345;28;8755;-85
2023/03/09 12:24:27;;;;;;;;;;;;;;;11.11;58.65;98707.38;5006635;28;7118;-86
2023/03/09 12:27:12;;;;;;;;;;;;;;;11.15;58.80;98703.13;4987327;28;8463;-85
2023/03/09 12:30:04;;;;;;;;;;;;;;;11.24;59.73;98701.59;4985717;28;8650;-86
2023/03/09 12:32:29;;;;;;;;;;;;;;;11.34;59.31;98692.34;4987901;28;7358;-87
2023/03/09 12:35:00;;;;;;;;;;;;;;;11.41;58.97;98688.22;5007443;28;6957;-86
2023/03/09 12:37:28;;;;;;;;;;;;;;;11.48;59.42;98687.47;5006496;28;6973;-86
2023/03/09 12:40:26;;;;;;;;;;;;;;;11.58;59.55;98667.09;5005738;28;7059;-87
2023/03/09 12:42:56;;;;;;;;;;;;;;;11.76;59.56;98671.66;5000517;28;8531;-85
2023/03/09 12:45:31;;;;;;;;;;;;;;;11.93;60.03;98671.91;5019287;28;6980;-87
2023/03/09 12:48:11;;;;;;;;;;;;;;;12.07;59.90;98656.75;4994689;28;8484;-87
2023/03/09 12:50:42;;;;;;;;;;;;;;;12.20;59.87;98652.66;5020886;28;8561;-87
2023/03/09 12:53:12;;;;;;;;;;;;;;;12.27;59.39;98657.03;5006406;28;7379;-86
2023/03/09 12:55:40;;;;;;;;;;;;;;;12.33;59.30;98653.66;5001400;28;8443;-86
2023/03/09 12:58:31;;;;;;;;;;;;;;;12.41;59.18;98649.50;5008030;28;6804;-83
2023/03/09 13:01:06;;;;;;;;;;;;;;;12.57;59.77;98653.09;5004627;28;8499;-87
2023/03/09 13:04:02;;;;;;;;;;;;;;;12.75;59.53;98651.59;5005435;28;7320;-87
2023/03/09 13:06:55;;;;;;;;;;;;;;;12.96;59.29;98640.66;4999551;28;8604;-87
2023/03/09 13:09:39;;;;;;;;;;;;;;;13.11;59.26;98639.94;5001028;28;7196;-87
2023/03/09 13:12:27;;;;;;;;;;;;;;;13.23;58.74;98640.91;4997980;28;9034;-86
2023/03/09 13:14:56;;;;;;;;;;;;;;;13.30;58.67;98637.53;5008115;28;7203;-86
2023/03/09 13:17:29;;;;;;;;;;;;;;;13.40;58.79;98641.06;5002829;28;8704;-87
2023/03/09 13:20:13;;;;;;;;;;;;;;;13.48;58.98;98634.31;5007398;28;6807;-88
2023/03/09 13:22:41;;;;;;;;;;;;;;;13.54;58.76;98634.34;4991401;28;8449;-87
2023/03/09 13:25:40;;;;;;;;;;;;;;;13.60;58.52;98624.09;4990406;28;8852;-85